Anza, California
Current Conditions -  °F | °C
As of 6:53 AM on Thursday 18 Dec 2014 (Local Time) from KPSP Reporting Station
Clear Clear  
Wind Chill:   Ceiling: Unl
Heat Index:   Visibility: 10mi
Dew Point:   Wind: 3mph
Humidity: 74%   Direction: 320°NW
Pressure: 30.15"   Gusts: NA
Location:  33.55°N, 116.67°W
Report Text: KPSP 181453Z 32003KT 10SM CLR 09/05 A3015 RMK AO2 SLP211 T00940050 53014
Loading
Personal Weather Stations






























Interactive Weather Map New forecast layout! Learn more

10-Day Weather Forecast

Advertisements
Track Severe Weather on mobile